Terminal Aerodrome Forecast
Issued by NWS

Home | Current Version | Previous Version | Text Only | Print | Product List | Glossary Off
Versions: 1 2 3 4 5 6 7 8 9 10 11 12 13 14 15 16 17 18 19 20 21 22 23

096
FTUS43 KICT 161722
TAFHUT
TAF
KHUT 161722Z 1618/1718 18014G20KT P6SM SCT100
     FM162200 17010KT P6SM VCTS BKN040CB OVC090
     FM170000 01012KT P6SM VCTS OVC050CB
     FM171100 03009KT P6SM OVC025
     FM171600 04007KT P6SM BKN035=

USA.gov is the U.S. government's official web portal to all federal, state and local government web resources and services.